Time;durP1;ratioP1;P1;durP2;ratioP2;P2;SDS_P1;SDS_P2;PMS_P1;PMS_P2;Temp;Humidity;BMP_temperature;BMP_pressure;BME280_temperature;BME280_humidity;BME280_pressure;Samples;Min_cycle;Max_cycle;Signal;HPM_P1;HPM_P2
2022/10/01 00:00:33;;;;;;;10.05;6.70;;;13.10;42.30;;;;;;5032451;28;20383;-75
2022/10/01 00:02:59;;;;;;;12.23;6.70;;;13.10;42.20;;;;;;5032341;28;20379;-75
2022/10/01 00:05:24;;;;;;;7.88;6.40;;;13.20;42.30;;;;;;5032867;28;20493;-76
2022/10/01 00:07:50;;;;;;;8.40;6.97;;;13.20;42.70;;;;;;5032496;28;20399;-75
2022/10/01 00:10:16;;;;;;;11.30;6.75;;;13.20;43.60;;;;;;5032515;28;20423;-75
2022/10/01 00:12:47;;;;;;;9.68;6.97;;;13.10;44.70;;;;;;5032251;28;20387;-75
2022/10/01 00:15:15;;;;;;;7.70;6.40;;;13.20;45.50;;;;;;5032336;28;20418;-75
2022/10/01 00:17:42;;;;;;;8.68;6.55;;;13.30;47.10;;;;;;5032194;28;20410;-76
2022/10/01 00:20:10;;;;;;;12.27;7.13;;;13.20;49.10;;;;;;5030995;28;20461;-75
2022/10/01 00:22:36;;;;;;;8.73;7.03;;;13.20;50.10;;;;;;5032094;28;20474;-76
2022/10/01 00:25:03;;;;;;;11.85;7.68;;;13.10;52.10;;;;;;5031134;28;20399;-75
2022/10/01 00:27:28;;;;;;;11.50;8.05;;;13.10;53.90;;;;;;5032092;28;20474;-75
2022/10/01 00:29:54;;;;;;;9.20;7.53;;;13.00;54.70;;;;;;5032318;28;20811;-75
2022/10/01 00:32:20;;;;;;;13.43;8.10;;;12.90;56.30;;;;;;5031816;28;20848;-75
2022/10/01 00:34:47;;;;;;;13.65;8.63;;;12.90;58.00;;;;;;5032232;28;20385;-76
2022/10/01 00:37:13;;;;;;;8.80;7.90;;;12.90;60.20;;;;;;5031788;28;20474;-76
2022/10/01 00:39:39;;;;;;;9.50;7.80;;;12.80;61.00;;;;;;5032008;28;20417;-75
2022/10/01 00:42:17;;;;;;;11.13;8.37;;;12.70;63.40;;;;;;5031385;28;20382;-77
2022/10/01 00:44:43;;;;;;;12.82;8.32;;;12.70;64.90;;;;;;5031681;28;20379;-76
2022/10/01 00:47:17;;;;;;;11.77;8.90;;;12.60;66.10;;;;;;5031713;28;20740;-75
2022/10/01 00:49:46;;;;;;;10.10;8.32;;;12.70;68.00;;;;;;5031213;28;20888;-75
2022/10/01 00:52:16;;;;;;;12.88;8.40;;;12.60;70.10;;;;;;5031685;28;20395;-76
2022/10/01 00:54:48;;;;;;;12.65;8.90;;;12.40;73.70;;;;;;5031877;28;20462;-75
2022/10/01 00:57:17;;;;;;;13.93;9.27;;;12.40;76.00;;;;;;5031680;28;20468;-75
2022/10/01 00:59:43;;;;;;;11.73;8.93;;;12.30;78.30;;;;;;5031677;28;20799;-75
2022/10/01 01:02:10;;;;;;;12.50;9.30;;;12.30;79.20;;;;;;5031326;28;20387;-76
2022/10/01 01:04:37;;;;;;;12.43;9.30;;;12.30;80.80;;;;;;5031595;28;20390;-75
2022/10/01 01:07:03;;;;;;;14.10;9.60;;;12.20;82.70;;;;;;5031975;28;20490;-75
2022/10/01 01:09:34;;;;;;;13.85;8.80;;;12.20;85.80;;;;;;5031820;28;20469;-76
2022/10/01 01:12:31;;;;;;;10.73;9.20;;;12.20;85.40;;;;;;5031409;28;20466;-75
2022/10/01 01:15:17;;;;;;;9.70;8.48;;;12.10;86.70;;;;;;5032252;28;20386;-76
2022/10/01 01:18:08;;;;;;;15.90;9.20;;;12.20;87.50;;;;;;5031650;28;20383;-75
2022/10/01 01:21:10;;;;;;;12.50;8.52;;;12.20;88.10;;;;;;5030840;28;20395;-76
2022/10/01 01:23:54;;;;;;;12.98;8.80;;;12.10;89.80;;;;;;5012034;28;20405;-75
2022/10/01 01:26:35;;;;;;;11.25;9.70;;;12.20;90.40;;;;;;5029178;28;20399;-75
2022/10/01 01:29:30;;;;;;;14.90;10.52;;;12.20;92.60;;;;;;5030441;28;20415;-76
2022/10/01 01:32:01;;;;;;;17.05;11.50;;;12.10;94.50;;;;;;5019862;28;20387;-76
2022/10/01 01:34:30;;;;;;;13.97;11.50;;;12.10;99.30;;;;;;5031893;28;20382;-76
2022/10/01 01:37:10;;;;;;;16.20;12.45;;;12.00;99.50;;;;;;5031483;28;20383;-76
2022/10/01 01:39:39;;;;;;;14.32;10.98;;;12.10;98.80;;;;;;5031390;28;20437;-77
2022/10/01 01:42:12;;;;;;;15.00;12.30;;;12.00;97.70;;;;;;5031008;28;20474;-76
2022/10/01 01:44:42;;;;;;;13.07;11.30;;;12.00;99.90;;;;;;5030968;28;20402;-76
2022/10/01 01:47:09;;;;;;;15.60;11.95;;;12.00;99.90;;;;;;5030916;28;20966;-76
2022/10/01 01:49:37;;;;;;;14.57;12.00;;;11.90;99.90;;;;;;5030776;28;20501;-75
2022/10/01 01:52:12;;;;;;;13.82;11.20;;;11.90;99.90;;;;;;5029191;28;20745;-76
2022/10/01 01:54:38;;;;;;;14.68;11.35;;;11.80;99.90;;;;;;5015533;28;20763;-76
2022/10/01 01:57:05;;;;;;;16.75;10.98;;;11.80;99.90;;;;;;5030538;28;20394;-76
2022/10/01 01:59:33;;;;;;;14.82;11.32;;;11.90;99.90;;;;;;5046050;28;20417;-76
2022/10/01 02:01:59;;;;;;;16.53;12.50;;;11.80;99.90;;;;;;5033996;28;20486;-76
2022/10/01 02:04:41;;;;;;;17.30;14.30;;;11.80;99.90;;;;;;5034241;28;20391;-76
2022/10/01 02:07:25;;;;;;;16.08;12.80;;;11.80;99.90;;;;;;5034663;28;20437;-76
2022/10/01 02:10:16;;;;;;;13.30;11.45;;;11.80;99.90;;;;;;5034145;28;20847;-76
2022/10/01 02:12:44;;;;;;;14.90;11.80;;;11.90;99.90;;;;;;5033895;28;20405;-76
2022/10/01 02:15:24;;;;;;;12.93;11.10;;;11.80;99.90;;;;;;5034379;28;20387;-75
2022/10/01 02:18:15;;;;;;;12.43;10.10;;;11.80;99.90;;;;;;5034153;28;20554;-75
2022/10/01 02:21:02;;;;;;;12.00;10.38;;;11.90;99.90;;;;;;5034063;28;20390;-76
2022/10/01 02:23:33;;;;;;;14.25;10.15;;;11.80;99.90;;;;;;5033539;28;20403;-74
2022/10/01 02:26:03;;;;;;;13.75;9.85;;;11.80;99.90;;;;;;5033963;28;20393;-75
2022/10/01 02:28:32;;;;;;;13.73;10.65;;;11.80;99.90;;;;;;5033596;28;20442;-75
2022/10/01 02:31:01;;;;;;;12.65;9.70;;;11.80;99.90;;;;;;5033769;28;20790;-75
2022/10/01 02:33:31;;;;;;;10.65;9.18;;;11.90;99.90;;;;;;5034023;28;20691;-75
2022/10/01 02:35:58;;;;;;;12.77;9.45;;;11.90;99.90;;;;;;5033598;28;20395;-76
2022/10/01 02:38:25;;;;;;;11.60;9.82;;;11.90;99.90;;;;;;5033985;28;20387;-75
2022/10/01 02:40:55;;;;;;;13.63;10.95;;;11.80;99.90;;;;;;5033482;28;20891;-75
2022/10/01 02:43:33;;;;;;;15.55;10.27;;;11.80;99.90;;;;;;5033767;28;20433;-75
2022/10/01 02:46:10;;;;;;;13.05;10.10;;;11.80;99.90;;;;;;5033887;28;20481;-75
2022/10/01 02:48:36;;;;;;;13.15;10.55;;;11.80;99.90;;;;;;5032301;28;20414;-75
2022/10/01 02:51:14;;;;;;;13.77;10.40;;;11.80;99.90;;;;;;5033593;28;20460;-76
2022/10/01 02:53:44;;;;;;;13.45;9.75;;;11.80;99.90;;;;;;5034152;28;20426;-76
2022/10/01 02:56:13;;;;;;;14.30;10.18;;;11.80;99.90;;;;;;5034147;28;20402;-76
2022/10/01 02:58:40;;;;;;;13.38;10.40;;;11.70;99.90;;;;;;5033420;28;20399;-76
2022/10/01 03:01:06;;;;;;;14.30;10.05;;;11.70;99.90;;;;;;5033259;28;20395;-76
2022/10/01 03:03:31;;;;;;;11.93;10.10;;;11.80;99.90;;;;;;5033006;28;20980;-76
2022/10/01 03:05:57;;;;;;;13.90;10.87;;;11.80;99.90;;;;;;5033559;28;20391;-76
2022/10/01 03:08:22;;;;;;;16.80;12.17;;;11.70;99.90;;;;;;5031874;28;20415;-74
2022/10/01 03:10:49;;;;;;;14.73;10.50;;;11.80;99.90;;;;;;5032995;28;20403;-76
2022/10/01 03:13:16;;;;;;;17.13;11.35;;;11.70;99.90;;;;;;5032013;28;20906;-76
2022/10/01 03:15:44;;;;;;;13.70;11.15;;;11.80;99.90;;;;;;5033178;28;20395;-76
2022/10/01 03:18:10;;;;;;;14.70;11.10;;;11.80;99.90;;;;;;5031545;28;20405;-76
2022/10/01 03:20:36;;;;;;;12.45;9.88;;;11.80;99.90;;;;;;5033335;28;20739;-75
2022/10/01 03:23:01;;;;;;;13.10;10.10;;;11.80;99.90;;;;;;5032755;28;20749;-75
2022/10/01 03:25:27;;;;;;;12.90;10.00;;;11.80;99.90;;;;;;5033028;28;20395;-75
2022/10/01 03:27:52;;;;;;;12.93;10.20;;;11.80;99.90;;;;;;5032631;28;20395;-75
2022/10/01 03:30:18;;;;;;;13.40;10.20;;;11.80;99.90;;;;;;5032580;28;20403;-76
2022/10/01 03:32:43;;;;;;;12.60;10.13;;;11.70;99.90;;;;;;5032544;28;20903;-74
2022/10/01 03:35:09;;;;;;;15.10;10.50;;;11.70;99.90;;;;;;5032681;28;20402;-75
2022/10/01 03:37:34;;;;;;;14.15;10.52;;;11.70;99.90;;;;;;5032380;28;20402;-75
2022/10/01 03:40:00;;;;;;;13.27;9.88;;;11.70;99.90;;;;;;5032549;28;20838;-75
2022/10/01 03:42:26;;;;;;;12.38;9.05;;;11.70;99.90;;;;;;5032061;28;20395;-75
2022/10/01 03:44:51;;;;;;;13.82;10.50;;;11.70;99.90;;;;;;5032548;28;20402;-75
2022/10/01 03:47:17;;;;;;;14.38;9.52;;;11.70;99.90;;;;;;5032652;28;20402;-75
2022/10/01 03:49:42;;;;;;;12.80;10.35;;;11.70;99.90;;;;;;5031187;28;20400;-75
2022/10/01 03:52:08;;;;;;;13.32;9.80;;;11.70;99.90;;;;;;5032110;28;20685;-76
2022/10/01 03:54:33;;;;;;;12.17;9.77;;;11.70;99.90;;;;;;5032542;28;20391;-75
2022/10/01 03:56:59;;;;;;;11.87;8.13;;;11.70;99.90;;;;;;5032207;28;20391;-75
2022/10/01 03:59:26;;;;;;;12.30;10.07;;;11.60;99.90;;;;;;5031865;28;20481;-75
2022/10/01 04:01:52;;;;;;;11.32;8.88;;;11.60;99.90;;;;;;5030668;28;20410;-75
2022/10/01 04:04:19;;;;;;;12.75;8.40;;;11.70;99.90;;;;;;5032131;28;20391;-75
2022/10/01 04:06:44;;;;;;;8.90;8.00;;;11.70;99.90;;;;;;5032087;28;20524;-76
2022/10/01 04:09:10;;;;;;;8.75;7.85;;;11.70;99.90;;;;;;5031996;28;20411;-76
2022/10/01 04:11:36;;;;;;;8.93;7.63;;;11.70;99.90;;;;;;5031846;28;20383;-76
2022/10/01 04:14:02;;;;;;;12.13;8.85;;;11.70;99.90;;;;;;5032080;28;20375;-76
2022/10/01 04:16:27;;;;;;;10.63;8.70;;;11.70;99.90;;;;;;5031914;28;20401;-75
2022/10/01 04:18:53;;;;;;;12.03;9.80;;;11.70;99.90;;;;;;5031975;28;20395;-75
2022/10/01 04:21:19;;;;;;;10.20;9.13;;;11.70;99.90;;;;;;5031744;28;20418;-75
2022/10/01 04:23:44;;;;;;;9.93;8.40;;;11.70;99.90;;;;;;5034311;28;20387;-75
2022/10/01 04:26:10;;;;;;;12.33;9.67;;;11.70;99.90;;;;;;5031883;28;20956;-74
2022/10/01 04:28:35;;;;;;;12.07;9.65;;;11.70;99.90;;;;;;5032466;28;20414;-76
2022/10/01 04:33:45;;;;;;;9.65;7.95;;;11.70;99.90;;;;;;5017288;28;20744;-76
2022/10/01 04:36:11;;;;;;;9.97;8.07;;;11.70;99.90;;;;;;5032056;28;20399;-76
2022/10/01 04:38:37;;;;;;;11.23;8.70;;;11.70;99.90;;;;;;5034684;28;20402;-77
2022/10/01 04:41:02;;;;;;;7.60;6.80;;;11.80;99.90;;;;;;5031285;28;20398;-75
2022/10/01 04:43:28;;;;;;;7.20;6.50;;;11.80;99.90;;;;;;5031260;28;20391;-75
2022/10/01 04:45:53;;;;;;;7.07;6.30;;;11.80;99.90;;;;;;5031420;28;20387;-74
2022/10/01 04:48:20;;;;;;;7.20;6.00;;;11.80;99.90;;;;;;5031200;28;20493;-75
2022/10/01 04:50:45;;;;;;;7.93;6.60;;;11.80;99.90;;;;;;5031384;28;20387;-75
2022/10/01 04:53:11;;;;;;;7.90;6.30;;;11.80;99.90;;;;;;5030990;28;20390;-75
2022/10/01 04:55:37;;;;;;;5.90;5.40;;;11.90;99.90;;;;;;5031070;28;20476;-75
2022/10/01 04:58:02;;;;;;;8.95;5.93;;;11.80;99.90;;;;;;5031253;28;20379;-75
2022/10/01 05:00:28;;;;;;;7.00;5.75;;;11.80;99.90;;;;;;5031208;28;20430;-75
2022/10/01 05:02:55;;;;;;;6.40;5.00;;;11.80;99.90;;;;;;5030774;28;20423;-74
2022/10/01 05:05:23;;;;;;;5.80;5.10;;;11.90;99.90;;;;;;5030934;28;20431;-74
2022/10/01 05:07:49;;;;;;;7.88;5.60;;;11.90;99.90;;;;;;5030441;28;20399;-75
2022/10/01 05:10:18;;;;;;;5.90;5.30;;;11.90;99.90;;;;;;5030724;28;20437;-74
2022/10/01 05:12:45;;;;;;;7.68;6.45;;;12.00;99.90;;;;;;5030637;28;20406;-74
2022/10/01 05:15:11;;;;;;;6.88;5.75;;;11.90;99.90;;;;;;5030704;28;20395;-74
2022/10/01 05:17:37;;;;;;;5.85;5.20;;;11.90;99.90;;;;;;5030857;28;20886;-74
2022/10/01 05:20:05;;;;;;;7.82;5.38;;;12.00;99.90;;;;;;5030740;28;20474;-74
2022/10/01 05:22:30;;;;;;;8.18;4.97;;;11.90;99.90;;;;;;5030340;28;20399;-74
2022/10/01 05:24:58;;;;;;;5.50;4.90;;;11.90;99.90;;;;;;5030659;28;20911;-74
2022/10/01 05:27:25;;;;;;;5.93;3.90;;;11.90;99.90;;;;;;5030485;28;20413;-74
2022/10/01 05:29:51;;;;;;;6.53;4.72;;;12.00;99.90;;;;;;5030307;28;20420;-75
2022/10/01 05:32:17;;;;;;;4.95;3.90;;;12.00;99.90;;;;;;5030183;28;20515;-75
2022/10/01 05:34:42;;;;;;;4.88;3.38;;;12.10;99.90;;;;;;5030078;28;20777;-75
2022/10/01 05:37:08;;;;;;;4.78;3.50;;;12.10;99.90;;;;;;5030133;28;20395;-75
2022/10/01 05:39:33;;;;;;;5.60;2.90;;;12.10;99.90;;;;;;5030471;28;21222;-75
2022/10/01 05:42:01;;;;;;;3.70;2.70;;;12.10;99.90;;;;;;5029027;28;20399;-75
2022/10/01 05:44:27;;;;;;;3.30;2.80;;;12.00;99.90;;;;;;5030327;28;20472;-74
2022/10/01 05:46:53;;;;;;;3.15;2.00;;;12.10;99.90;;;;;;5031033;28;20446;-75
2022/10/01 05:49:23;;;;;;;2.17;1.90;;;12.20;99.90;;;;;;5030855;28;20898;-75
2022/10/01 05:51:48;;;;;;;4.18;1.90;;;12.20;99.90;;;;;;5030750;28;20379;-75
2022/10/01 05:54:18;;;;;;;2.60;1.70;;;12.20;99.90;;;;;;5030120;28;20395;-75
2022/10/01 05:56:44;;;;;;;2.70;2.15;;;12.20;99.90;;;;;;5030365;28;20386;-75
2022/10/01 05:59:10;;;;;;;3.83;2.00;;;12.30;99.90;;;;;;5030125;28;20398;-75
2022/10/01 06:01:36;;;;;;;2.72;1.90;;;12.30;99.90;;;;;;5030014;28;20402;-75
2022/10/01 06:04:02;;;;;;;3.83;1.73;;;12.30;99.90;;;;;;5030503;28;20461;-75
2022/10/01 06:06:28;;;;;;;2.10;1.70;;;12.30;99.90;;;;;;5030513;28;20797;-75
2022/10/01 06:08:53;;;;;;;3.03;1.90;;;12.30;99.90;;;;;;5030589;28;20406;-75
2022/10/01 06:11:21;;;;;;;3.50;1.60;;;12.50;99.90;;;;;;5029951;28;20430;-75
2022/10/01 06:13:47;;;;;;;2.77;1.60;;;12.50;99.90;;;;;;5030712;28;20398;-75
2022/10/01 06:16:14;;;;;;;2.10;1.25;;;12.60;99.90;;;;;;5029463;28;20743;-75
2022/10/01 06:18:40;;;;;;;1.95;1.25;;;12.70;99.90;;;;;;5031776;28;20402;-75
2022/10/01 06:21:06;;;;;;;3.63;1.30;;;12.70;99.90;;;;;;5030080;28;20402;-75
2022/10/01 06:23:32;;;;;;;2.60;1.20;;;12.70;99.90;;;;;;5030134;28;20395;-74
2022/10/01 06:25:59;;;;;;;1.10;1.00;;;12.80;99.90;;;;;;5031012;28;20467;-74
2022/10/01 06:28:25;;;;;;;1.40;1.10;;;12.90;99.90;;;;;;5028452;28;20415;-74
2022/10/01 06:30:50;;;;;;;1.48;1.00;;;13.00;99.90;;;;;;5029588;28;20397;-74
2022/10/01 06:33:17;;;;;;;2.80;1.00;;;13.00;99.90;;;;;;5029878;28;20399;-75
2022/10/01 06:35:48;;;;;;;0.90;0.70;;;13.10;99.90;;;;;;5030268;28;20383;-75
2022/10/01 06:38:14;;;;;;;1.40;0.80;;;13.20;99.90;;;;;;5030705;28;20794;-75
2022/10/01 06:40:40;;;;;;;1.83;0.90;;;13.20;99.90;;;;;;5030529;28;21198;-75
2022/10/01 06:43:07;;;;;;;1.48;0.73;;;13.30;99.90;;;;;;5034904;28;20757;-75
2022/10/01 06:45:39;;;;;;;1.10;0.77;;;13.30;99.90;;;;;;5034677;28;20392;-75
2022/10/01 06:48:05;;;;;;;1.00;0.90;;;13.40;99.90;;;;;;5037174;28;20518;-75
2022/10/01 06:50:32;;;;;;;2.00;0.80;;;13.50;99.90;;;;;;5039100;28;20438;-75
2022/10/01 06:53:00;;;;;;;1.00;0.90;;;13.50;99.90;;;;;;5039277;28;20486;-75
2022/10/01 06:55:28;;;;;;;1.90;0.90;;;13.60;99.90;;;;;;5039580;28;20456;-76
2022/10/01 06:58:03;;;;;;;1.90;0.80;;;13.70;99.90;;;;;;5039627;28;20445;-75
2022/10/01 07:00:31;;;;;;;1.20;0.80;;;13.70;99.90;;;;;;5038808;28;20403;-75
2022/10/01 07:02:59;;;;;;;1.60;1.02;;;13.80;99.90;;;;;;5023709;28;20883;-76
2022/10/01 07:05:25;;;;;;;2.97;1.00;;;13.80;99.80;;;;;;5036453;28;20391;-75
2022/10/01 07:07:52;;;;;;;3.70;1.20;;;13.80;96.60;;;;;;5036837;28;20391;-75
2022/10/01 07:10:19;;;;;;;1.30;0.90;;;13.90;97.70;;;;;;5036019;28;20413;-75
2022/10/01 07:12:47;;;;;;;1.23;0.75;;;13.90;94.80;;;;;;5034825;28;20399;-75
2022/10/01 07:15:15;;;;;;;4.50;0.90;;;14.00;92.50;;;;;;5033031;28;20425;-75
2022/10/01 07:17:48;;;;;;;3.67;0.95;;;14.10;93.00;;;;;;5032968;28;20468;-74
2022/10/01 07:20:18;;;;;;;1.50;0.90;;;14.20;91.00;;;;;;5032345;28;20407;-74
2022/10/01 07:22:45;;;;;;;1.52;0.80;;;14.20;90.60;;;;;;5032419;28;20407;-74
2022/10/01 07:25:11;;;;;;;5.82;0.90;;;14.20;88.90;;;;;;5032786;28;20393;-74
2022/10/01 07:27:37;;;;;;;2.40;1.00;;;14.20;90.60;;;;;;5020201;28;20793;-74
2022/10/01 07:30:04;;;;;;;2.70;0.80;;;14.30;90.00;;;;;;5023205;28;20469;-73
2022/10/01 07:32:30;;;;;;;1.92;0.90;;;14.30;91.30;;;;;;5030716;28;20449;-74
2022/10/01 07:34:56;;;;;;;2.37;0.90;;;14.40;89.00;;;;;;5033186;28;20379;-74
2022/10/01 07:37:22;;;;;;;1.13;0.80;;;14.30;90.10;;;;;;5032210;28;20462;-74
2022/10/01 07:39:47;;;;;;;1.10;0.90;;;14.30;89.30;;;;;;5030061;28;20435;-74
2022/10/01 07:42:13;;;;;;;1.80;0.80;;;14.30;89.50;;;;;;5047686;28;20391;-74
2022/10/01 07:44:39;;;;;;;1.00;0.90;;;14.30;89.50;;;;;;5033305;28;20461;-73
2022/10/01 07:47:04;;;;;;;2.00;0.90;;;14.30;90.70;;;;;;5032480;28;20533;-73
2022/10/01 07:49:30;;;;;;;1.88;0.80;;;14.40;89.80;;;;;;5032663;28;20403;-73
2022/10/01 07:51:57;;;;;;;1.20;0.90;;;14.40;88.90;;;;;;5032846;28;20387;-73
2022/10/01 07:54:23;;;;;;;3.55;1.20;;;14.50;89.80;;;;;;5032054;28;20402;-74
2022/10/01 07:56:51;;;;;;;1.77;1.30;;;14.50;90.00;;;;;;5032340;28;20383;-74
2022/10/01 07:59:17;;;;;;;3.20;1.13;;;14.60;89.00;;;;;;5031769;28;20387;-74
2022/10/01 08:01:46;;;;;;;1.88;1.15;;;14.90;86.90;;;;;;5031895;28;20398;-73
2022/10/01 08:06:56;;;;;;;2.17;1.30;;;15.20;82.20;;;;;;5032207;28;20559;-74
2022/10/01 08:09:21;;;;;;;4.73;1.20;;;15.20;80.00;;;;;;5032143;28;20779;-74
2022/10/01 08:11:47;;;;;;;2.40;1.30;;;15.20;81.50;;;;;;5031825;28;20394;-74
2022/10/01 08:14:13;;;;;;;1.92;1.45;;;15.10;82.10;;;;;;5032225;28;20391;-74
2022/10/01 08:16:40;;;;;;;2.63;1.63;;;15.20;82.20;;;;;;5031901;28;20735;-75
2022/10/01 08:19:06;;;;;;;6.18;2.17;;;15.30;82.10;;;;;;5032071;28;20474;-74
2022/10/01 08:21:34;;;;;;;4.32;1.20;;;15.40;80.70;;;;;;5031218;28;20470;-75
2022/10/01 08:24:01;;;;;;;3.60;1.52;;;15.50;79.00;;;;;;5031631;28;20391;-75
2022/10/01 08:26:27;;;;;;;2.50;1.10;;;15.50;78.70;;;;;;5031322;28;20437;-75
2022/10/01 08:28:53;;;;;;;3.90;1.20;;;15.50;78.70;;;;;;5031607;28;20745;-75
2022/10/01 08:31:18;;;;;;;2.30;1.40;;;15.50;78.30;;;;;;5031218;28;20394;-75
2022/10/01 08:33:44;;;;;;;2.40;1.50;;;15.70;76.50;;;;;;5031487;28;20379;-75
2022/10/01 08:36:09;;;;;;;2.95;1.70;;;15.60;76.00;;;;;;5031504;28;20387;-75
2022/10/01 08:38:36;;;;;;;2.70;1.47;;;15.70;75.70;;;;;;5031905;28;20383;-74
2022/10/01 08:41:32;;;;;;;3.97;1.83;;;16.00;73.30;;;;;;5037667;28;20391;-74
2022/10/01 08:44:00;;;;;;;1.92;1.50;;;16.40;66.60;;;;;;5032281;28;20941;-74
2022/10/01 08:46:31;;;;;;;4.30;1.88;;;16.50;66.30;;;;;;5031695;28;20391;-74
2022/10/01 08:49:15;;;;;;;2.53;1.60;;;16.30;66.60;;;;;;5032150;28;20425;-75
2022/10/01 08:52:02;;;;;;;1.90;1.50;;;16.20;68.40;;;;;;5030747;28;20376;-75
2022/10/01 08:54:38;;;;;;;4.43;2.00;;;16.00;71.60;;;;;;5031349;28;20384;-74
2022/10/01 08:57:10;;;;;;;4.20;2.17;;;16.00;72.00;;;;;;5030987;28;20391;-74
2022/10/01 08:59:44;;;;;;;5.80;1.60;;;16.00;72.70;;;;;;5031513;28;20481;-75
2022/10/01 09:02:27;;;;;;;2.80;1.90;;;16.10;72.60;;;;;;5031733;28;20903;-74
2022/10/01 09:04:56;;;;;;;1.70;1.60;;;16.30;69.30;;;;;;5031142;28;20919;-74
2022/10/01 09:07:34;;;;;;;3.88;2.10;;;16.40;69.30;;;;;;5030685;28;20394;-73
2022/10/01 09:10:34;;;;;;;3.70;1.80;;;16.40;69.20;;;;;;5030393;28;20410;-74
2022/10/01 09:13:21;;;;;;;3.65;1.80;;;16.30;69.40;;;;;;5030778;28;20379;-73
2022/10/01 09:16:05;;;;;;;7.05;2.10;;;16.20;70.40;;;;;;5030860;28;20409;-73
2022/10/01 09:19:01;;;;;;;4.53;2.70;;;16.00;73.20;;;;;;5030620;28;20871;-74
2022/10/01 09:21:38;;;;;;;4.70;2.70;;;15.90;77.00;;;;;;5030368;28;20757;-73
2022/10/01 09:24:14;;;;;;;4.70;1.90;;;15.80;77.20;;;;;;5031144;28;20390;-75
2022/10/01 09:26:47;;;;;;;4.80;2.80;;;15.70;80.50;;;;;;5033760;28;20387;-75
2022/10/01 09:29:19;;;;;;;6.40;2.92;;;15.60;85.90;;;;;;5034105;28;20460;-73
2022/10/01 09:31:50;;;;;;;6.13;3.20;;;15.50;89.00;;;;;;5034276;28;20839;-76
2022/10/01 09:34:46;;;;;;;6.93;3.40;;;15.50;91.20;;;;;;5034062;28;20387;-75
2022/10/01 09:37:23;;;;;;;9.00;3.40;;;15.70;87.00;;;;;;5029926;28;20518;-73
2022/10/01 09:39:59;;;;;;;7.80;4.63;;;15.90;86.50;;;;;;5033296;28;20399;-73
2022/10/01 09:42:28;;;;;;;6.53;3.60;;;16.20;84.60;;;;;;5030550;28;20915;-72
2022/10/01 09:44:54;;;;;;;6.32;3.78;;;16.40;80.30;;;;;;5030365;28;20441;-75
2022/10/01 09:47:22;;;;;;;7.50;4.82;;;16.50;77.40;;;;;;5030634;28;20458;-73
2022/10/01 09:49:48;;;;;;;7.05;5.10;;;16.60;75.80;;;;;;5029491;28;20465;-75
2022/10/01 09:52:35;;;;;;;6.05;3.50;;;16.60;78.00;;;;;;5030547;28;20370;-74
2022/10/01 09:55:21;;;;;;;5.05;3.00;;;16.80;75.40;;;;;;5030622;28;20868;-74
2022/10/01 09:57:52;;;;;;;5.45;2.35;;;16.70;75.20;;;;;;5031010;28;20402;-74
2022/10/01 10:00:20;;;;;;;3.43;2.30;;;16.90;73.70;;;;;;5030632;28;20464;-74
2022/10/01 10:02:50;;;;;;;4.10;2.20;;;17.00;70.70;;;;;;5030327;28;20411;-74
2022/10/01 10:05:25;;;;;;;5.32;1.92;;;17.00;68.20;;;;;;5030378;28;20744;-74
2022/10/01 10:08:04;;;;;;;6.10;2.10;;;17.10;69.50;;;;;;5029668;28;20387;-74
2022/10/01 10:10:34;;;;;;;3.10;1.90;;;17.20;67.90;;;;;;5030289;28;20383;-74
2022/10/01 10:13:12;;;;;;;3.25;1.90;;;17.20;67.60;;;;;;5029792;28;20490;-74
2022/10/01 10:15:48;;;;;;;4.82;1.83;;;17.10;67.10;;;;;;5030222;28;20383;-74
2022/10/01 10:18:16;;;;;;;4.45;1.75;;;17.20;67.40;;;;;;5030373;28;20837;-74
2022/10/01 10:20:44;;;;;;;5.97;1.80;;;17.20;65.60;;;;;;5030056;28;20791;-74
2022/10/01 10:23:14;;;;;;;6.32;1.80;;;17.30;62.60;;;;;;5060604;22;20457;-71
2022/10/01 10:25:40;;;;;;;4.03;1.90;;;17.40;61.10;;;;;;5055139;28;20715;-71
2022/10/01 10:28:22;;;;;;;6.68;2.00;;;17.30;63.00;;;;;;5054697;28;20442;-71
2022/10/01 10:30:49;;;;;;;3.30;1.85;;;17.20;60.50;;;;;;5054881;28;20384;-73
2022/10/01 10:33:16;;;;;;;10.02;2.45;;;17.10;60.60;;;;;;5054235;28;20384;-71
2022/10/01 10:35:42;;;;;;;4.80;2.15;;;16.90;63.00;;;;;;5054916;28;20377;-70
2022/10/01 10:38:17;;;;;;;4.50;2.72;;;16.80;65.20;;;;;;5054535;28;20395;-72
2022/10/01 10:40:44;;;;;;;4.47;2.55;;;17.00;64.30;;;;;;5054551;28;20783;-72
2022/10/01 10:43:22;;;;;;;9.40;4.15;;;17.50;61.60;;;;;;5053533;28;20397;-75
2022/10/01 10:45:55;;;;;;;9.07;3.90;;;17.80;55.80;;;;;;5032290;28;20470;-72
2022/10/01 10:48:24;;;;;;;17.23;7.63;;;18.10;54.60;;;;;;5046485;28;20417;-71
2022/10/01 10:50:58;;;;;;;11.93;6.82;;;18.10;51.00;;;;;;5052418;28;20841;-72
2022/10/01 10:53:26;;;;;;;28.50;14.90;;;18.10;53.30;;;;;;5052098;28;20389;-72
2022/10/01 10:56:02;;;;;;;24.70;12.30;;;18.30;51.40;;;;;;5052092;28;20489;-71
2022/10/01 10:58:33;;;;;;;20.17;9.13;;;18.20;52.00;;;;;;5051914;28;20401;-74
2022/10/01 11:01:12;;;;;;;26.67;15.25;;;17.90;55.20;;;;;;5051750;28;20417;-72
2022/10/01 11:03:54;;;;;;;28.13;11.82;;;17.80;55.10;;;;;;5050073;28;20411;-71
2022/10/01 11:06:20;;;;;;;18.05;9.93;;;17.60;56.80;;;;;;5051619;28;20405;-71
2022/10/01 11:08:56;;;;;;;17.10;7.40;;;17.50;57.80;;;;;;5051997;28;20924;-72
2022/10/01 11:11:31;;;;;;;33.73;17.23;;;17.50;56.40;;;;;;5051110;28;20447;-72
2022/10/01 11:14:02;;;;;;;19.70;9.70;;;17.50;57.60;;;;;;5041640;28;20438;-72
2022/10/01 11:16:43;;;;;;;92.88;45.05;;;17.50;55.30;;;;;;5032618;28;20379;-73
2022/10/01 11:19:26;;;;;;;31.00;15.77;;;17.50;55.40;;;;;;5044177;28;20393;-72
2022/10/01 11:22:03;;;;;;;31.35;19.02;;;17.50;56.10;;;;;;5035553;28;20798;-72
2022/10/01 11:24:44;;;;;;;21.65;9.40;;;17.50;57.00;;;;;;5055216;28;20909;-73
2022/10/01 11:27:49;;;;;;;11.95;5.15;;;17.50;56.30;;;;;;5044718;28;20478;-73
2022/10/01 11:30:43;;;;;;;13.73;5.70;;;17.50;63.10;;;;;;5034490;28;20896;-72
2022/10/01 11:33:27;;;;;;;13.20;5.07;;;17.40;69.10;;;;;;5035645;28;20395;-73
2022/10/01 11:36:13;;;;;;;18.20;8.65;;;17.60;63.50;;;;;;5043174;28;20395;-73
2022/10/01 11:38:48;;;;;;;15.77;8.25;;;17.60;59.80;;;;;;5037693;28;20838;-71
2022/10/01 11:41:23;;;;;;;41.88;17.65;;;17.60;55.40;;;;;;5033884;28;20783;-72
2022/10/01 11:43:51;;;;;;;16.30;8.27;;;17.50;53.70;;;;;;5033335;28;20437;-71
2022/10/01 11:47:08;;;;;;;17.27;7.82;;;17.50;54.90;;;;;;5033138;28;20926;-71
2022/10/01 11:49:55;;;;;;;21.75;11.95;;;17.70;55.50;;;;;;4989072;28;20749;-72
2022/10/01 11:52:42;;;;;;;37.75;16.80;;;18.20;52.80;;;;;;5032956;28;20386;-71
2022/10/01 12:01:14;;;;;;;17.88;8.70;;;19.10;43.40;;;;;;5032832;28;20462;-73
2022/10/01 12:03:59;;;;;;;13.35;4.35;;;19.50;40.60;;;;;;5032911;28;20405;-71
2022/10/01 12:06:34;;;;;;;12.15;4.43;;;19.80;36.70;;;;;;5033071;28;20386;-71
2022/10/01 12:09:15;;;;;;;11.75;3.40;;;19.90;33.10;;;;;;5032759;28;20418;-70
2022/10/01 12:12:00;;;;;;;12.27;3.60;;;19.50;32.80;;;;;;5035497;28;20390;-72
2022/10/01 12:14:51;;;;;;;12.27;3.03;;;19.20;34.70;;;;;;5037976;28;20490;-73
2022/10/01 12:17:51;;;;;;;15.57;3.35;;;19.30;33.00;;;;;;5036004;28;20824;-70
2022/10/01 12:20:28;;;;;;;10.88;3.00;;;19.30;32.00;;;;;;4964624;28;20387;-70
2022/10/01 12:22:56;;;;;;;8.77;3.70;;;19.50;32.00;;;;;;5032290;28;20399;-71
2022/10/01 12:25:34;;;;;;;9.48;3.40;;;19.60;31.60;;;;;;5032495;28;20863;-72
2022/10/01 12:28:12;;;;;;;7.47;3.10;;;19.60;32.40;;;;;;5031007;28;20406;-72
2022/10/01 12:31:01;;;;;;;14.20;3.58;;;19.30;34.40;;;;;;5032872;28;20402;-71
2022/10/01 12:33:27;;;;;;;18.00;4.35;;;18.70;48.30;;;;;;5032265;28;20759;-71
2022/10/01 12:36:17;;;;;;;16.08;6.07;;;17.50;65.50;;;;;;5032753;28;20486;-70
2022/10/01 12:38:55;;;;;;;15.70;6.70;;;16.70;64.20;;;;;;5031416;28;20395;-71
2022/10/01 12:41:33;;;;;;;15.40;4.47;;;16.30;75.00;;;;;;5032070;28;21087;-70
2022/10/01 12:44:28;;;;;;;15.68;5.20;;;16.00;71.90;;;;;;5032768;28;20379;-71
2022/10/01 12:46:54;;;;;;;10.27;3.20;;;15.90;83.10;;;;;;5031964;28;20816;-72
2022/10/01 12:49:28;;;;;;;7.20;2.73;;;15.70;70.30;;;;;;5030690;28;20478;-70
2022/10/01 12:52:26;;;;;;;9.80;3.40;;;15.80;67.50;;;;;;5031981;28;20414;-71
2022/10/01 12:55:03;;;;;;;9.77;4.07;;;15.80;64.00;;;;;;5031650;28;20413;-72
2022/10/01 12:57:35;;;;;;;13.32;3.90;;;15.90;65.70;;;;;;5031313;28;20474;-71
2022/10/01 13:00:15;;;;;;;11.05;4.40;;;15.90;64.70;;;;;;5032379;28;20383;-72
2022/10/01 13:03:02;;;;;;;13.80;4.78;;;16.00;67.50;;;;;;5031975;28;20466;-72
2022/10/01 13:05:54;;;;;;;13.90;5.28;;;16.20;67.40;;;;;;5032001;28;20729;-72
2022/10/01 13:08:39;;;;;;;14.77;4.07;;;16.70;66.80;;;;;;5032185;28;20421;-71
2022/10/01 13:11:19;;;;;;;13.07;6.00;;;17.00;64.50;;;;;;5031842;28;20371;-72
2022/10/01 13:13:52;;;;;;;14.02;4.30;;;17.00;61.30;;;;;;5032129;28;20747;-72